SWA1561 KBWI-KMCO
Flight info
| Callsign | SWA1561 |
|---|---|
| Flight time | 1h 46m |
| Altitude | 38000 |
| Route | CONLE5 SCOOB MOXXY Q85 LPERD GTOUT1 |
| Aircraft | B38M/M-SADE2E3GHIJ4J7P2RWZ/LB1D1 |
Departure
| Time | 2026-04-23 11:00 |
|---|---|
| Airport | Baltimore/Washington International Thurgood Marshall Airport (KBWI) |
Arrival
| Time | 2026-04-23 12:46 |
|---|---|
| Airport | Orlando International Airport (KMCO) |
| Time | Latitude | Longitude | Altitude | Speed | Heading |
|---|---|---|---|---|---|
| 2026-04-23 10:27 | 39.17948 | -76.67248 | 158 ft | 0 kts | 59° |
| 2026-04-23 10:50 | 39.17935 | -76.67274 | 158 ft | 4 kts | 57° |
| 2026-04-23 10:50 | 39.17921 | -76.67303 | 157 ft | 4 kts | 59° |
| 2026-04-23 10:51 | 39.17912 | -76.67328 | 156 ft | 4 kts | 89° |
| 2026-04-23 10:51 | 39.17922 | -76.67351 | 156 ft | 4 kts | 145° |
| 2026-04-23 10:51 | 39.17939 | -76.67366 | 156 ft | 0 kts | 143° |
| 2026-04-23 10:55 | 39.17928 | -76.67355 | 156 ft | 7 kts | 143° |
| 2026-04-23 10:55 | 39.17852 | -76.67283 | 157 ft | 20 kts | 144° |
| 2026-04-23 10:55 | 39.17728 | -76.67169 | 157 ft | 23 kts | 144° |
| 2026-04-23 10:56 | 39.17601 | -76.67051 | 158 ft | 18 kts | 144° |
| 2026-04-23 10:56 | 39.17535 | -76.66912 | 158 ft | 20 kts | 95° |
| 2026-04-23 10:56 | 39.17525 | -76.66723 | 157 ft | 22 kts | 95° |
| 2026-04-23 10:56 | 39.17534 | -76.66557 | 156 ft | 15 kts | 48° |
| 2026-04-23 10:57 | 39.17560 | -76.66443 | 156 ft | 16 kts | 122° |
| 2026-04-23 10:57 | 39.17491 | -76.66304 | 152 ft | 20 kts | 125° |
| 2026-04-23 10:57 | 39.17453 | -76.66144 | 151 ft | 20 kts | 94° |
| 2026-04-23 10:57 | 39.17442 | -76.65953 | 148 ft | 23 kts | 95° |
| 2026-04-23 10:58 | 39.17429 | -76.65733 | 144 ft | 26 kts | 94° |
| 2026-04-23 10:58 | 39.17421 | -76.65575 | 144 ft | 13 kts | 95° |
| 2026-04-23 10:58 | 39.17343 | -76.65524 | 143 ft | 15 kts | 181° |
| 2026-04-23 10:58 | 39.17283 | -76.65539 | 142 ft | 7 kts | 234° |
| 2026-04-23 10:59 | 39.17281 | -76.65572 | 161 ft | 0 kts | 274° |
| 2026-04-23 10:59 | 39.17285 | -76.65641 | 143 ft | 35 kts | 274° |
| 2026-04-23 10:59 | 39.17324 | -76.66314 | 153 ft | 113 kts | 274° |
| 2026-04-23 10:59 | 39.17399 | -76.67607 | 182 ft | 171 kts | 274° |
| 2026-04-23 11:00 | 39.17493 | -76.69192 | 838 ft | 179 kts | 273° |
| 2026-04-23 11:00 | 39.17589 | -76.70829 | 1568 ft | 196 kts | 272° |
| 2026-04-23 11:00 | 39.17691 | -76.72687 | 2053 ft | 220 kts | 268° |
| 2026-04-23 11:00 | 39.17297 | -76.74636 | 2614 ft | 239 kts | 238° |
| 2026-04-23 11:01 | 39.15952 | -76.76003 | 3285 ft | 260 kts | 202° |
| 2026-04-23 11:01 | 39.14115 | -76.76099 | 4206 ft | 278 kts | 169° |
| 2026-04-23 11:01 | 39.12394 | -76.74863 | 5024 ft | 293 kts | 138° |
| 2026-04-23 11:01 | 39.10925 | -76.73001 | 5892 ft | 299 kts | 142° |
| 2026-04-23 11:02 | 39.09512 | -76.71506 | 6641 ft | 303 kts | 143° |
| 2026-04-23 11:02 | 39.07881 | -76.69751 | 6932 ft | 306 kts | 143° |
| 2026-04-23 11:02 | 39.06260 | -76.67977 | 7020 ft | 306 kts | 142° |
| 2026-04-23 11:02 | 39.04648 | -76.66198 | 7037 ft | 305 kts | 142° |
| 2026-04-23 11:03 | 39.03160 | -76.64224 | 7385 ft | 309 kts | 131° |
| 2026-04-23 11:03 | 39.01796 | -76.62113 | 8373 ft | 307 kts | 133° |
| 2026-04-23 11:03 | 39.00404 | -76.60008 | 9256 ft | 310 kts | 133° |
| 2026-04-23 11:03 | 38.98991 | -76.57899 | 10182 ft | 312 kts | 134° |
| 2026-04-23 11:04 | 38.97537 | -76.55739 | 10695 ft | 329 kts | 134° |
| 2026-04-23 11:04 | 38.95995 | -76.53459 | 11125 ft | 347 kts | 134° |
| 2026-04-23 11:04 | 38.94275 | -76.51238 | 11679 ft | 353 kts | 148° |
| 2026-04-23 11:04 | 38.92092 | -76.49922 | 12511 ft | 345 kts | 171° |
| 2026-04-23 11:05 | 38.89730 | -76.49678 | 13263 ft | 340 kts | 191° |
| 2026-04-23 11:05 | 38.87392 | -76.50158 | 13521 ft | 340 kts | 196° |
| 2026-04-23 11:05 | 38.85075 | -76.50740 | 13670 ft | 339 kts | 198° |
| 2026-04-23 11:05 | 38.82869 | -76.51712 | 13832 ft | 334 kts | 207° |
| 2026-04-23 11:06 | 38.78508 | -76.53876 | 13998 ft | 337 kts | 206° |
| 2026-04-23 11:06 | 38.76313 | -76.54941 | 14002 ft | 337 kts | 206° |
| 2026-04-23 11:06 | 38.74118 | -76.55998 | 14000 ft | 337 kts | 206° |
| 2026-04-23 11:07 | 38.71918 | -76.57053 | 13999 ft | 337 kts | 205° |
| 2026-04-23 11:07 | 38.69719 | -76.58105 | 13998 ft | 338 kts | 205° |
| 2026-04-23 11:07 | 38.67496 | -76.59137 | 14507 ft | 340 kts | 205° |
| 2026-04-23 11:07 | 38.65261 | -76.60174 | 15317 ft | 344 kts | 205° |
| 2026-04-23 11:08 | 38.62992 | -76.61226 | 16035 ft | 350 kts | 205° |
| 2026-04-23 11:08 | 38.60682 | -76.62296 | 16792 ft | 355 kts | 206° |
| 2026-04-23 11:08 | 38.58340 | -76.63380 | 17490 ft | 361 kts | 206° |
| 2026-04-23 11:08 | 38.55969 | -76.64477 | 18188 ft | 366 kts | 206° |
| 2026-04-23 11:09 | 38.53550 | -76.65595 | 18814 ft | 372 kts | 206° |
| 2026-04-23 11:09 | 38.51134 | -76.66711 | 19407 ft | 376 kts | 206° |
| 2026-04-23 11:09 | 38.48661 | -76.67852 | 20000 ft | 381 kts | 206° |
| 2026-04-23 11:09 | 38.46152 | -76.69010 | 20584 ft | 385 kts | 206° |
| 2026-04-23 11:10 | 38.43613 | -76.70180 | 21173 ft | 390 kts | 206° |
| 2026-04-23 11:10 | 38.40950 | -76.71026 | 21752 ft | 404 kts | 189° |
| 2026-04-23 11:10 | 38.38106 | -76.70866 | 22390 ft | 414 kts | 177° |
| 2026-04-23 11:10 | 38.35227 | -76.70436 | 22922 ft | 419 kts | 178° |
| 2026-04-23 11:11 | 38.32320 | -76.69993 | 23482 ft | 423 kts | 177° |
| 2026-04-23 11:11 | 38.29381 | -76.69530 | 23976 ft | 427 kts | 177° |
| 2026-04-23 11:11 | 38.26421 | -76.69055 | 24458 ft | 430 kts | 177° |
| 2026-04-23 11:11 | 38.23446 | -76.68577 | 24945 ft | 433 kts | 177° |
| 2026-04-23 11:12 | 38.20442 | -76.68093 | 25417 ft | 435 kts | 177° |
| 2026-04-23 11:12 | 38.17429 | -76.67609 | 25877 ft | 438 kts | 177° |
| 2026-04-23 11:12 | 38.14384 | -76.67120 | 26336 ft | 441 kts | 177° |
| 2026-04-23 11:12 | 38.11320 | -76.66628 | 26778 ft | 444 kts | 177° |
| 2026-04-23 11:13 | 38.08241 | -76.66359 | 27211 ft | 444 kts | 182° |
| 2026-04-23 11:13 | 38.05145 | -76.66185 | 27642 ft | 447 kts | 182° |
| 2026-04-23 11:13 | 38.02027 | -76.65986 | 28076 ft | 450 kts | 181° |
| 2026-04-23 11:13 | 37.98887 | -76.65772 | 28512 ft | 453 kts | 181° |
| 2026-04-23 11:14 | 37.95730 | -76.65553 | 28933 ft | 456 kts | 181° |
| 2026-04-23 11:14 | 37.92551 | -76.65332 | 29335 ft | 459 kts | 181° |
| 2026-04-23 11:14 | 37.89357 | -76.65109 | 29746 ft | 461 kts | 181° |
| 2026-04-23 11:14 | 37.86140 | -76.64885 | 30120 ft | 464 kts | 181° |
| 2026-04-23 11:15 | 37.82905 | -76.64660 | 30459 ft | 467 kts | 181° |
| 2026-04-23 11:15 | 37.79658 | -76.64434 | 30802 ft | 469 kts | 181° |
| 2026-04-23 11:15 | 37.76395 | -76.64207 | 31124 ft | 471 kts | 181° |
| 2026-04-23 11:15 | 37.73112 | -76.63979 | 31452 ft | 473 kts | 181° |
| 2026-04-23 11:16 | 37.69820 | -76.63752 | 31778 ft | 475 kts | 181° |
| 2026-04-23 11:16 | 37.66511 | -76.63522 | 32105 ft | 477 kts | 181° |
| 2026-04-23 11:16 | 37.63184 | -76.63291 | 32418 ft | 480 kts | 181° |
| 2026-04-23 11:16 | 37.59852 | -76.63322 | 32707 ft | 475 kts | 193° |
| 2026-04-23 11:17 | 37.56698 | -76.64360 | 33039 ft | 467 kts | 205° |
| 2026-04-23 11:17 | 37.53625 | -76.65692 | 33414 ft | 468 kts | 204° |
| 2026-04-23 11:17 | 37.50554 | -76.67045 | 33842 ft | 467 kts | 205° |
| 2026-04-23 11:17 | 37.47501 | -76.68417 | 34230 ft | 466 kts | 205° |
| 2026-04-23 11:18 | 37.44451 | -76.69804 | 34597 ft | 465 kts | 205° |
| 2026-04-23 11:18 | 37.41407 | -76.71194 | 34949 ft | 465 kts | 205° |
| 2026-04-23 11:18 | 37.38374 | -76.72580 | 35296 ft | 464 kts | 205° |
| 2026-04-23 11:18 | 37.35334 | -76.73967 | 35614 ft | 464 kts | 205° |
| 2026-04-23 11:19 | 37.32340 | -76.75334 | 35946 ft | 464 kts | 205° |
| 2026-04-23 11:19 | 37.29268 | -76.76733 | 36285 ft | 463 kts | 205° |
| 2026-04-23 11:19 | 37.26279 | -76.78095 | 36604 ft | 463 kts | 205° |
| 2026-04-23 11:19 | 37.23252 | -76.79473 | 36895 ft | 463 kts | 205° |
| 2026-04-23 11:20 | 37.20228 | -76.80848 | 37196 ft | 462 kts | 205° |
| 2026-04-23 11:20 | 37.17206 | -76.82220 | 37504 ft | 462 kts | 205° |
| 2026-04-23 11:20 | 37.14186 | -76.83592 | 37802 ft | 461 kts | 205° |
| 2026-04-23 11:20 | 37.11167 | -76.84960 | 38051 ft | 462 kts | 205° |
| 2026-04-23 11:21 | 37.08140 | -76.86332 | 38109 ft | 462 kts | 205° |
| 2026-04-23 11:21 | 37.02115 | -76.89058 | 38084 ft | 460 kts | 205° |
| 2026-04-23 11:22 | 36.96095 | -76.91778 | 38085 ft | 460 kts | 205° |
| 2026-04-23 11:22 | 36.90066 | -76.94497 | 38074 ft | 460 kts | 205° |
| 2026-04-23 11:23 | 36.84036 | -76.97212 | 38078 ft | 461 kts | 205° |
| 2026-04-23 11:23 | 36.78007 | -76.99922 | 38086 ft | 460 kts | 205° |
| 2026-04-23 11:24 | 36.71973 | -77.02630 | 38086 ft | 461 kts | 205° |
| 2026-04-23 11:24 | 36.65935 | -77.05335 | 38080 ft | 461 kts | 205° |
| 2026-04-23 11:25 | 36.59896 | -77.08036 | 38084 ft | 461 kts | 205° |
| 2026-04-23 11:25 | 36.53848 | -77.10736 | 38080 ft | 461 kts | 205° |
| 2026-04-23 11:26 | 36.47799 | -77.13433 | 38090 ft | 462 kts | 205° |
| 2026-04-23 11:26 | 36.41751 | -77.16124 | 38089 ft | 462 kts | 205° |
| 2026-04-23 11:27 | 36.35697 | -77.18814 | 38102 ft | 462 kts | 205° |
| 2026-04-23 11:27 | 36.29639 | -77.21501 | 38093 ft | 462 kts | 205° |
| 2026-04-23 11:28 | 36.23576 | -77.24186 | 38097 ft | 463 kts | 205° |
| 2026-04-23 11:28 | 36.17505 | -77.26870 | 38094 ft | 463 kts | 205° |
| 2026-04-23 11:29 | 36.11431 | -77.29552 | 38093 ft | 464 kts | 205° |
| 2026-04-23 11:29 | 36.05400 | -77.32333 | 38077 ft | 458 kts | 213° |
| 2026-04-23 11:29 | 36.02834 | -77.34463 | 38107 ft | 447 kts | 224° |
| 2026-04-23 11:30 | 36.00347 | -77.36812 | 38086 ft | 451 kts | 223° |
| 2026-04-23 11:30 | 35.95368 | -77.41530 | 38094 ft | 451 kts | 223° |
| 2026-04-23 11:31 | 35.90421 | -77.46294 | 38096 ft | 451 kts | 223° |
| 2026-04-23 11:31 | 35.86318 | -77.50251 | 38095 ft | 451 kts | 223° |
| 2026-04-23 11:32 | 35.81367 | -77.55019 | 38095 ft | 451 kts | 223° |
| 2026-04-23 11:32 | 35.76420 | -77.59776 | 38093 ft | 451 kts | 223° |
| 2026-04-23 11:33 | 35.71476 | -77.64522 | 38093 ft | 451 kts | 223° |
| 2026-04-23 11:33 | 35.66527 | -77.69264 | 38087 ft | 450 kts | 223° |
| 2026-04-23 11:34 | 35.61579 | -77.73995 | 38011 ft | 451 kts | 223° |
| 2026-04-23 11:34 | 35.56606 | -77.78747 | 38106 ft | 456 kts | 222° |
| 2026-04-23 11:35 | 35.51548 | -77.83575 | 38116 ft | 464 kts | 222° |
| 2026-04-23 11:35 | 35.46448 | -77.88430 | 38115 ft | 464 kts | 222° |
| 2026-04-23 11:36 | 35.41356 | -77.93271 | 38114 ft | 463 kts | 222° |
| 2026-04-23 11:36 | 35.36269 | -77.98100 | 38108 ft | 462 kts | 221° |
| 2026-04-23 11:37 | 35.31188 | -78.02914 | 38110 ft | 462 kts | 221° |
| 2026-04-23 11:37 | 35.26107 | -78.07721 | 38106 ft | 461 kts | 221° |
| 2026-04-23 11:38 | 35.21028 | -78.12517 | 38107 ft | 461 kts | 221° |
| 2026-04-23 11:38 | 35.15983 | -78.17274 | 38114 ft | 461 kts | 221° |
| 2026-04-23 11:39 | 35.10902 | -78.22057 | 38118 ft | 461 kts | 221° |
| 2026-04-23 11:39 | 35.05792 | -78.26862 | 38128 ft | 461 kts | 221° |
| 2026-04-23 11:40 | 35.00744 | -78.31600 | 38133 ft | 461 kts | 221° |
| 2026-04-23 11:40 | 34.95660 | -78.36362 | 38128 ft | 461 kts | 221° |
| 2026-04-23 11:41 | 34.90569 | -78.41126 | 38129 ft | 461 kts | 221° |
| 2026-04-23 11:41 | 34.85471 | -78.45888 | 38123 ft | 462 kts | 221° |
| 2026-04-23 11:42 | 34.80374 | -78.50642 | 38118 ft | 462 kts | 221° |
| 2026-04-23 11:42 | 34.75264 | -78.55400 | 38136 ft | 462 kts | 221° |
| 2026-04-23 11:43 | 34.70156 | -78.60148 | 38141 ft | 462 kts | 221° |
| 2026-04-23 11:43 | 34.65045 | -78.64892 | 38145 ft | 463 kts | 221° |
| 2026-04-23 11:44 | 34.59926 | -78.69637 | 38147 ft | 463 kts | 221° |
| 2026-04-23 11:44 | 34.54803 | -78.74377 | 38139 ft | 463 kts | 221° |
| 2026-04-23 11:45 | 34.49673 | -78.79109 | 38130 ft | 463 kts | 221° |
| 2026-04-23 11:45 | 34.44533 | -78.83815 | 38138 ft | 464 kts | 218° |
| 2026-04-23 11:46 | 34.39228 | -78.88288 | 38144 ft | 464 kts | 218° |
| 2026-04-23 11:46 | 34.33943 | -78.92773 | 38145 ft | 464 kts | 218° |
| 2026-04-23 11:47 | 34.28653 | -78.97259 | 38143 ft | 464 kts | 218° |
| 2026-04-23 11:47 | 34.23356 | -79.01720 | 38142 ft | 464 kts | 218° |
| 2026-04-23 11:48 | 34.18059 | -79.06168 | 38146 ft | 464 kts | 218° |
| 2026-04-23 11:48 | 34.12763 | -79.10609 | 38145 ft | 463 kts | 218° |
| 2026-04-23 11:49 | 34.07467 | -79.15042 | 38147 ft | 463 kts | 218° |
| 2026-04-23 11:49 | 34.02170 | -79.19471 | 38148 ft | 463 kts | 218° |
| 2026-04-23 11:50 | 33.96875 | -79.23894 | 38164 ft | 463 kts | 218° |
| 2026-04-23 11:50 | 33.91582 | -79.28310 | 38165 ft | 463 kts | 218° |
| 2026-04-23 11:51 | 33.86285 | -79.32720 | 38166 ft | 463 kts | 218° |
| 2026-04-23 11:51 | 33.80991 | -79.37123 | 38163 ft | 462 kts | 218° |
| 2026-04-23 11:52 | 33.75694 | -79.41520 | 38162 ft | 462 kts | 218° |
| 2026-04-23 11:52 | 33.70402 | -79.45908 | 38160 ft | 462 kts | 218° |
| 2026-04-23 11:53 | 33.65107 | -79.50290 | 38156 ft | 462 kts | 218° |
| 2026-04-23 11:53 | 33.59812 | -79.54666 | 38153 ft | 462 kts | 218° |
| 2026-04-23 11:54 | 33.54517 | -79.59035 | 38156 ft | 462 kts | 218° |
| 2026-04-23 11:54 | 33.49221 | -79.63398 | 38158 ft | 462 kts | 218° |
| 2026-04-23 11:55 | 33.43960 | -79.67727 | 38158 ft | 462 kts | 218° |
| 2026-04-23 11:55 | 33.38667 | -79.72076 | 38162 ft | 461 kts | 217° |
| 2026-04-23 11:56 | 33.33375 | -79.76414 | 38165 ft | 461 kts | 217° |
| 2026-04-23 11:56 | 33.28077 | -79.80752 | 38174 ft | 461 kts | 217° |
| 2026-04-23 11:57 | 33.22789 | -79.85075 | 38176 ft | 460 kts | 217° |
| 2026-04-23 11:57 | 33.17501 | -79.89390 | 38178 ft | 460 kts | 217° |
| 2026-04-23 11:58 | 33.12213 | -79.93700 | 38183 ft | 460 kts | 217° |
| 2026-04-23 11:58 | 33.06928 | -79.98001 | 38178 ft | 460 kts | 217° |
| 2026-04-23 11:59 | 33.01638 | -80.02300 | 38169 ft | 460 kts | 217° |
| 2026-04-23 11:59 | 32.96374 | -80.06571 | 38175 ft | 460 kts | 217° |
| 2026-04-23 12:00 | 32.91081 | -80.10859 | 38171 ft | 460 kts | 217° |
| 2026-04-23 12:00 | 32.85786 | -80.15143 | 38168 ft | 460 kts | 217° |
| 2026-04-23 12:01 | 32.80488 | -80.19423 | 38176 ft | 460 kts | 217° |
| 2026-04-23 12:01 | 32.75185 | -80.23700 | 38178 ft | 461 kts | 217° |
| 2026-04-23 12:02 | 32.69879 | -80.27973 | 38176 ft | 461 kts | 217° |
| 2026-04-23 12:02 | 32.64571 | -80.32243 | 38173 ft | 461 kts | 217° |
| 2026-04-23 12:03 | 32.59261 | -80.36509 | 38172 ft | 461 kts | 217° |
| 2026-04-23 12:03 | 32.53689 | -80.40303 | 38168 ft | 463 kts | 212° |
| 2026-04-23 12:04 | 32.48093 | -80.44079 | 38189 ft | 463 kts | 212° |
| 2026-04-23 12:04 | 32.42503 | -80.47860 | 38180 ft | 462 kts | 212° |
| 2026-04-23 12:05 | 32.36910 | -80.51637 | 38188 ft | 463 kts | 212° |
| 2026-04-23 12:05 | 32.31312 | -80.55413 | 38207 ft | 463 kts | 212° |
| 2026-04-23 12:06 | 32.25706 | -80.59189 | 38203 ft | 463 kts | 212° |
| 2026-04-23 12:06 | 32.17312 | -80.64833 | 38204 ft | 463 kts | 212° |
| 2026-04-23 12:07 | 32.11709 | -80.68593 | 38202 ft | 463 kts | 212° |
| 2026-04-23 12:07 | 32.06145 | -80.72322 | 38190 ft | 463 kts | 212° |
| 2026-04-23 12:08 | 32.00543 | -80.76071 | 38182 ft | 463 kts | 212° |
| 2026-04-23 12:08 | 31.94937 | -80.79818 | 38172 ft | 463 kts | 212° |
| 2026-04-23 12:09 | 31.89330 | -80.83559 | 38159 ft | 463 kts | 212° |
| 2026-04-23 12:09 | 31.83721 | -80.87297 | 38160 ft | 463 kts | 211° |
| 2026-04-23 12:10 | 31.78109 | -80.91032 | 38165 ft | 463 kts | 211° |
| 2026-04-23 12:10 | 31.72498 | -80.94761 | 38163 ft | 463 kts | 211° |
| 2026-04-23 12:11 | 31.66886 | -80.98485 | 38163 ft | 463 kts | 211° |
| 2026-04-23 12:11 | 31.61279 | -81.02202 | 38171 ft | 463 kts | 211° |
| 2026-04-23 12:12 | 31.55597 | -81.05770 | 38174 ft | 463 kts | 210° |
| 2026-04-23 12:12 | 31.49885 | -81.09284 | 38177 ft | 464 kts | 210° |
| 2026-04-23 12:13 | 31.44177 | -81.12799 | 38181 ft | 464 kts | 210° |
| 2026-04-23 12:13 | 31.39428 | -81.15720 | 38179 ft | 463 kts | 209° |
| 2026-04-23 12:14 | 31.33687 | -81.19140 | 38189 ft | 463 kts | 209° |
| 2026-04-23 12:14 | 31.27936 | -81.22563 | 38188 ft | 463 kts | 209° |
| 2026-04-23 12:15 | 31.22187 | -81.25980 | 38189 ft | 463 kts | 209° |
| 2026-04-23 12:15 | 31.19224 | -81.27469 | 38179 ft | 465 kts | 197° |
| 2026-04-23 12:15 | 31.16033 | -81.28053 | 38195 ft | 466 kts | 182° |
| 2026-04-23 12:16 | 31.09514 | -81.28193 | 38189 ft | 469 kts | 181° |
| 2026-04-23 12:16 | 31.02986 | -81.28221 | 38194 ft | 469 kts | 181° |
| 2026-04-23 12:17 | 30.96460 | -81.28208 | 38194 ft | 469 kts | 181° |
| 2026-04-23 12:17 | 30.89930 | -81.28191 | 38187 ft | 469 kts | 181° |
| 2026-04-23 12:18 | 30.83397 | -81.28175 | 38193 ft | 469 kts | 181° |
| 2026-04-23 12:18 | 30.76873 | -81.28158 | 38013 ft | 467 kts | 181° |
| 2026-04-23 12:19 | 30.73624 | -81.28149 | 37186 ft | 469 kts | 181° |
| 2026-04-23 12:19 | 30.70352 | -81.28141 | 36306 ft | 472 kts | 181° |
| 2026-04-23 12:19 | 30.67058 | -81.28133 | 35567 ft | 472 kts | 181° |
| 2026-04-23 12:19 | 30.64225 | -81.28125 | 34963 ft | 472 kts | 181° |
| 2026-04-23 12:20 | 30.60941 | -81.28105 | 34228 ft | 472 kts | 179° |
| 2026-04-23 12:20 | 30.57668 | -81.27843 | 33577 ft | 469 kts | 176° |
| 2026-04-23 12:20 | 30.54417 | -81.27574 | 33232 ft | 469 kts | 177° |
| 2026-04-23 12:20 | 30.51159 | -81.27323 | 32870 ft | 468 kts | 177° |
| 2026-04-23 12:21 | 30.47922 | -81.27082 | 32413 ft | 465 kts | 177° |
| 2026-04-23 12:21 | 30.44696 | -81.26843 | 31936 ft | 461 kts | 177° |
| 2026-04-23 12:21 | 30.41544 | -81.26610 | 31486 ft | 458 kts | 177° |
| 2026-04-23 12:21 | 30.38376 | -81.26377 | 31051 ft | 455 kts | 177° |
| 2026-04-23 12:22 | 30.35226 | -81.26144 | 30612 ft | 452 kts | 177° |
| 2026-04-23 12:22 | 30.32118 | -81.25915 | 30155 ft | 449 kts | 177° |
| 2026-04-23 12:22 | 30.28981 | -81.25685 | 29649 ft | 446 kts | 177° |
| 2026-04-23 12:22 | 30.25896 | -81.25458 | 29206 ft | 442 kts | 177° |
| 2026-04-23 12:23 | 30.22834 | -81.25232 | 28792 ft | 439 kts | 177° |
| 2026-04-23 12:23 | 30.19791 | -81.25009 | 28360 ft | 436 kts | 178° |
| 2026-04-23 12:23 | 30.16769 | -81.24787 | 27944 ft | 433 kts | 178° |
| 2026-04-23 12:23 | 30.13775 | -81.24568 | 27524 ft | 430 kts | 178° |
| 2026-04-23 12:24 | 30.10797 | -81.24349 | 27109 ft | 427 kts | 178° |
| 2026-04-23 12:24 | 30.07840 | -81.24132 | 26696 ft | 424 kts | 178° |
| 2026-04-23 12:24 | 30.04900 | -81.23917 | 26284 ft | 421 kts | 178° |
| 2026-04-23 12:24 | 30.01984 | -81.23704 | 25880 ft | 419 kts | 178° |
| 2026-04-23 12:25 | 29.99084 | -81.23491 | 25473 ft | 416 kts | 178° |
| 2026-04-23 12:25 | 29.96206 | -81.23281 | 25070 ft | 413 kts | 178° |
| 2026-04-23 12:25 | 29.93347 | -81.23072 | 24669 ft | 410 kts | 179° |
| 2026-04-23 12:25 | 29.90512 | -81.22865 | 24274 ft | 407 kts | 179° |
| 2026-04-23 12:26 | 29.87686 | -81.22659 | 23872 ft | 405 kts | 179° |
| 2026-04-23 12:26 | 29.84880 | -81.22454 | 23420 ft | 402 kts | 179° |
| 2026-04-23 12:26 | 29.82096 | -81.22251 | 22993 ft | 400 kts | 179° |
| 2026-04-23 12:26 | 29.79327 | -81.22049 | 22601 ft | 397 kts | 179° |
| 2026-04-23 12:27 | 29.76573 | -81.21848 | 22216 ft | 396 kts | 179° |
| 2026-04-23 12:27 | 29.73829 | -81.21648 | 21835 ft | 393 kts | 179° |
| 2026-04-23 12:27 | 29.71106 | -81.21445 | 21427 ft | 392 kts | 179° |
| 2026-04-23 12:27 | 29.68394 | -81.21209 | 20977 ft | 389 kts | 178° |
| 2026-04-23 12:28 | 29.65715 | -81.20978 | 20632 ft | 384 kts | 178° |
| 2026-04-23 12:28 | 29.63046 | -81.20749 | 20266 ft | 385 kts | 178° |
| 2026-04-23 12:28 | 29.60381 | -81.20522 | 19902 ft | 383 kts | 178° |
| 2026-04-23 12:28 | 29.57726 | -81.20295 | 19528 ft | 381 kts | 178° |
| 2026-04-23 12:29 | 29.55088 | -81.20070 | 19159 ft | 379 kts | 178° |
| 2026-04-23 12:29 | 29.52461 | -81.19846 | 18790 ft | 378 kts | 178° |
| 2026-04-23 12:29 | 29.49846 | -81.19623 | 18410 ft | 376 kts | 178° |
| 2026-04-23 12:29 | 29.47248 | -81.19401 | 17908 ft | 375 kts | 178° |
| 2026-04-23 12:30 | 29.44651 | -81.19180 | 17454 ft | 372 kts | 178° |
| 2026-04-23 12:30 | 29.42079 | -81.18961 | 17072 ft | 368 kts | 178° |
| 2026-04-23 12:30 | 29.39541 | -81.18746 | 16710 ft | 364 kts | 178° |
| 2026-04-23 12:30 | 29.37062 | -81.18535 | 16369 ft | 359 kts | 177° |
| 2026-04-23 12:31 | 29.34547 | -81.18321 | 16011 ft | 357 kts | 177° |
| 2026-04-23 12:31 | 29.32070 | -81.18111 | 15659 ft | 357 kts | 177° |
| 2026-04-23 12:31 | 29.29628 | -81.17901 | 15304 ft | 355 kts | 177° |
| 2026-04-23 12:31 | 29.27171 | -81.17685 | 14957 ft | 353 kts | 177° |
| 2026-04-23 12:32 | 29.24737 | -81.17471 | 14635 ft | 348 kts | 176° |
| 2026-04-23 12:32 | 29.22332 | -81.17260 | 14302 ft | 346 kts | 176° |
| 2026-04-23 12:32 | 29.19943 | -81.17048 | 13959 ft | 343 kts | 176° |
| 2026-04-23 12:32 | 29.17621 | -81.16440 | 13531 ft | 344 kts | 160° |
| 2026-04-23 12:33 | 29.15391 | -81.15483 | 13193 ft | 340 kts | 160° |
| 2026-04-23 12:33 | 29.13194 | -81.14552 | 12871 ft | 330 kts | 160° |
| 2026-04-23 12:33 | 29.11095 | -81.13659 | 12572 ft | 315 kts | 160° |
| 2026-04-23 12:33 | 29.09084 | -81.12803 | 12272 ft | 303 kts | 160° |
| 2026-04-23 12:34 | 29.07109 | -81.11961 | 11980 ft | 303 kts | 160° |
| 2026-04-23 12:34 | 29.05145 | -81.11124 | 11664 ft | 299 kts | 160° |
| 2026-04-23 12:34 | 29.03182 | -81.10361 | 11349 ft | 298 kts | 162° |
| 2026-04-23 12:34 | 29.01225 | -81.09617 | 11056 ft | 296 kts | 161° |
| 2026-04-23 12:35 | 28.99275 | -81.08872 | 10778 ft | 294 kts | 161° |
| 2026-04-23 12:35 | 28.97332 | -81.08166 | 10488 ft | 291 kts | 167° |
| 2026-04-23 12:35 | 28.95359 | -81.07882 | 10166 ft | 281 kts | 174° |
| 2026-04-23 12:35 | 28.93415 | -81.07670 | 9862 ft | 281 kts | 174° |
| 2026-04-23 12:36 | 28.91468 | -81.07448 | 9553 ft | 281 kts | 173° |
| 2026-04-23 12:36 | 28.89524 | -81.07246 | 9246 ft | 278 kts | 178° |
| 2026-04-23 12:36 | 28.87672 | -81.07697 | 8896 ft | 274 kts | 206° |
| 2026-04-23 12:36 | 28.86065 | -81.08858 | 8639 ft | 275 kts | 213° |
| 2026-04-23 12:37 | 28.84480 | -81.10077 | 8370 ft | 273 kts | 213° |
| 2026-04-23 12:37 | 28.82917 | -81.11292 | 8090 ft | 271 kts | 213° |
| 2026-04-23 12:37 | 28.81396 | -81.12485 | 7807 ft | 260 kts | 213° |
| 2026-04-23 12:37 | 28.79931 | -81.13640 | 7547 ft | 251 kts | 213° |
| 2026-04-23 12:38 | 28.78525 | -81.14752 | 7314 ft | 241 kts | 213° |
| 2026-04-23 12:38 | 28.77159 | -81.15848 | 7091 ft | 240 kts | 216° |
| 2026-04-23 12:38 | 28.75893 | -81.17106 | 6767 ft | 244 kts | 220° |
| 2026-04-23 12:38 | 28.74639 | -81.18391 | 6414 ft | 246 kts | 219° |
| 2026-04-23 12:39 | 28.73360 | -81.19695 | 6082 ft | 246 kts | 219° |
| 2026-04-23 12:39 | 28.72089 | -81.20984 | 5822 ft | 243 kts | 219° |
| 2026-04-23 12:39 | 28.70830 | -81.22261 | 5491 ft | 242 kts | 219° |
| 2026-04-23 12:39 | 28.69588 | -81.23517 | 5175 ft | 235 kts | 219° |
| 2026-04-23 12:40 | 28.68375 | -81.24741 | 4857 ft | 230 kts | 220° |
| 2026-04-23 12:40 | 28.67190 | -81.25938 | 4543 ft | 225 kts | 220° |
| 2026-04-23 12:40 | 28.66032 | -81.27107 | 4250 ft | 220 kts | 220° |
| 2026-04-23 12:40 | 28.64793 | -81.28066 | 3938 ft | 213 kts | 199° |
| 2026-04-23 12:41 | 28.63372 | -81.28413 | 3665 ft | 206 kts | 183° |
| 2026-04-23 12:41 | 28.61967 | -81.28460 | 3444 ft | 198 kts | 178° |
| 2026-04-23 12:41 | 28.60634 | -81.28437 | 3188 ft | 182 kts | 177° |
| 2026-04-23 12:41 | 28.59425 | -81.28418 | 2987 ft | 170 kts | 177° |
| 2026-04-23 12:42 | 28.58247 | -81.28403 | 2773 ft | 169 kts | 177° |
| 2026-04-23 12:42 | 28.57077 | -81.28389 | 2537 ft | 167 kts | 177° |
| 2026-04-23 12:42 | 28.55912 | -81.28376 | 2330 ft | 167 kts | 177° |
| 2026-04-23 12:42 | 28.54752 | -81.28363 | 2118 ft | 166 kts | 177° |
| 2026-04-23 12:43 | 28.53582 | -81.28352 | 1901 ft | 166 kts | 178° |
| 2026-04-23 12:43 | 28.52427 | -81.28340 | 1691 ft | 166 kts | 178° |
| 2026-04-23 12:43 | 28.51323 | -81.28330 | 1503 ft | 152 kts | 177° |
| 2026-04-23 12:43 | 28.50292 | -81.28309 | 1289 ft | 145 kts | 176° |
| 2026-04-23 12:44 | 28.49277 | -81.28303 | 1092 ft | 143 kts | 178° |
| 2026-04-23 12:44 | 28.48319 | -81.28306 | 882 ft | 139 kts | 178° |
| 2026-04-23 12:44 | 28.47332 | -81.28294 | 699 ft | 144 kts | 178° |
| 2026-04-23 12:44 | 28.46338 | -81.28278 | 532 ft | 142 kts | 178° |
| 2026-04-23 12:45 | 28.45346 | -81.28268 | 323 ft | 143 kts | 179° |
| 2026-04-23 12:45 | 28.44355 | -81.28259 | 121 ft | 140 kts | 179° |
| 2026-04-23 12:45 | 28.43480 | -81.28249 | 99 ft | 99 kts | 179° |
| 2026-04-23 12:45 | 28.43022 | -81.28244 | 100 ft | 61 kts | 179° |
| 2026-04-23 12:46 | 28.42685 | -81.28241 | 100 ft | 27 kts | 182° |
| 2026-04-23 12:46 | 28.42545 | -81.28307 | 100 ft | 21 kts | 229° |
| 2026-04-23 12:46 | 28.42484 | -81.28480 | 100 ft | 25 kts | 251° |
| 2026-04-23 12:46 | 28.42424 | -81.28671 | 100 ft | 25 kts | 250° |
| 2026-04-23 12:47 | 28.42370 | -81.28844 | 105 ft | 23 kts | 252° |
| 2026-04-23 12:47 | 28.42325 | -81.28988 | 104 ft | 17 kts | 251° |
| 2026-04-23 12:47 | 28.42287 | -81.29155 | 97 ft | 24 kts | 263° |
| 2026-04-23 12:47 | 28.42284 | -81.29355 | 97 ft | 25 kts | 269° |
| 2026-04-23 12:48 | 28.42284 | -81.29552 | 97 ft | 26 kts | 270° |
| 2026-04-23 12:48 | 28.42307 | -81.29694 | 99 ft | 17 kts | 330° |
| 2026-04-23 12:48 | 28.42430 | -81.29700 | 97 ft | 19 kts | 360° |
| 2026-04-23 12:48 | 28.42573 | -81.29703 | 99 ft | 22 kts | 359° |
| 2026-04-23 12:49 | 28.42735 | -81.29704 | 98 ft | 25 kts | 359° |
| 2026-04-23 12:49 | 28.42915 | -81.29706 | 99 ft | 27 kts | 359° |
| 2026-04-23 12:49 | 28.43111 | -81.29708 | 98 ft | 28 kts | 359° |
| 2026-04-23 12:49 | 28.43252 | -81.29709 | 99 ft | 11 kts | 359° |
| 2026-04-23 12:50 | 28.43335 | -81.29727 | 98 ft | 13 kts | 307° |
| 2026-04-23 12:50 | 28.43338 | -81.29832 | 98 ft | 10 kts | 265° |
| 2026-04-23 12:50 | 28.43335 | -81.29897 | 100 ft | 9 kts | 289° |
| 2026-04-23 12:50 | 28.43372 | -81.29960 | 97 ft | 6 kts | 307° |
| 2026-04-23 12:51 | 28.43385 | -81.29980 | 98 ft | 2 kts | 306° |
| 2026-04-23 12:51 | 28.43389 | -81.29985 | 98 ft | 0 kts | 306° |